Knoxville, IL (61448)

8:47 AM CDT on October 25, 2014 (GMT -0500)
KILKNOXV2 | Change Station
CLOSE
Current Station
Personal Weather Station
Location: Knoxville, IL
Elevation: 773 ft
Nearby Weather Stations
Active Advisory: Dense Fog Advisory

Elev 773 ft 40.91 °N, 90.29 °W | Updated 14 minutes ago

Fog
Fog
50.5 °F
Feels Like 50.5 °F
N
0.0
Wind Variable Wind from West
Gusts 2.0 mph

Today
High -- | Low -- °F
--% Chance of Precip.
Yesterday
High -- | Low -- °F
Precip. -- in
7:23 AM 6:06 PM
Waxing Crescent, 3% visible
Pressure 30.01 in
Visibility 0.2 miles
Clouds Overcast 200 ft
Dew Point 50 °F
Humidity 98%
Rainfall 0.00 in
Snow Depth Not available.
UV 0 out of 12
Pollen 1.60 out of 12
Ozone Good
PM2.5 Moderate
Flu Activity No Activity
METAR KGBG 251335Z AUTO 00000KT M1/4SM FG OVC002 10/10 A3001 RMK AO2 P0001 T00960095

More Conditions Fewer Conditions

Pressure 30.01 in
Visibility 0.2 miles
Clouds Overcast 200 ft
Dew Point 50 °F
Humidity 98%
Rainfall 0.00 in
Snow Depth Not available.
UV 0 out of 12
Pollen 1.60 out of 12
Ozone Good
PM2.5 Moderate
Flu Activity No Activity
METAR KGBG 251335Z AUTO 00000KT M1/4SM FG OVC002 10/10 A3001 RMK AO2 P0001 T00960095

More Conditions Fewer Conditions

10-Day Weather Forecast

Almanac

Astronomy

Oct. 25, 2014 Rise Set
Actual Time 7:23 AM CDT 6:06 PM CDT
Civil Twilight 6:55 AM CDT 6:34 PM CDT
Nautical Twilight 6:23 AM CDT 7:06 PM CDT
Astronomical Twilight 5:51 AM CDT 7:38 PM CDT
Moon 9:03 AM CDT 7:28 PM CDT
Length of Visible Light 11h 38m
Length of Day
10h 42m
Tomorrow will be 2m 30s shorter.
Waxing Crescent, 3% of the Moon is Illuminated
Today
Waxing Crescent
Oct 30
First Quarter
Nov 6
Full
Nov 14
Last Quarter
Nov 22
New

Today's Extremes

State Highs State Lows

Community

WunderPhotos

Upload Photos

1,764,830 photos uploaded!

Nearby

Air Quality

  Air Quality AQ Index Pollutant
Yesterday Moderate
PM2.5
Yesterday Good
OZONE
Current Moderate
PM2.5
Current Good
OZONE
Saturday Good
PM2.5
Sunday Good
PM2.5
Monday Good
PM2.5
Tuesday Good
PM2.5
Wednesday Good
PM2.5

Snow Depth

Station Depth Elevation
No new snow has been reported.

Earthquake Activity

City Distance Mag. Time & Date
No recent earthquake activity has been reported nearby.
Minimum magnitude displayed is 2.5.

Coastal Water Temperatures

Place Temperature
No Stations Reporting

Nearby Weather Stations